sensor_id;sensor_type;location;lat;lon;timestamp;pressure;altitude;pressure_sealevel;temperature;humidity
7178;BME280;3630;42.146;24.756;2023-02-20T00:02:17;99608.56;;;15.18;43.49
7178;BME280;3630;42.146;24.756;2023-02-20T00:04:45;99613.72;;;15.17;43.61
7178;BME280;3630;42.146;24.756;2023-02-20T00:07:12;99606.84;;;15.13;43.20
7178;BME280;3630;42.146;24.756;2023-02-20T00:09:40;99625.78;;;15.19;43.11
7178;BME280;3630;42.146;24.756;2023-02-20T00:12:07;99625.78;;;15.16;43.12
7178;BME280;3630;42.146;24.756;2023-02-20T00:14:34;99641.34;;;15.21;42.93
7178;BME280;3630;42.146;24.756;2023-02-20T00:17:01;99599.03;;;15.05;43.25
7178;BME280;3630;42.146;24.756;2023-02-20T00:19:27;99630.13;;;15.16;43.15
7178;BME280;3630;42.146;24.756;2023-02-20T00:21:54;99628.41;;;15.10;43.37
7178;BME280;3630;42.146;24.756;2023-02-20T00:24:21;99627.50;;;15.08;43.41
7178;BME280;3630;42.146;24.756;2023-02-20T00:26:51;99631.84;;;15.08;43.48
7178;BME280;3630;42.146;24.756;2023-02-20T00:29:20;99625.81;;;15.04;43.60
7178;BME280;3630;42.146;24.756;2023-02-20T00:31:50;99631.84;;;15.02;43.97
7178;BME280;3630;42.146;24.756;2023-02-20T00:34:18;99635.28;;;14.96;44.02
7178;BME280;3630;42.146;24.756;2023-02-20T00:36:44;99638.72;;;14.91;44.25
7178;BME280;3630;42.146;24.756;2023-02-20T00:39:11;99631.81;;;14.87;44.37
7178;BME280;3630;42.146;24.756;2023-02-20T00:41:38;99621.47;;;14.82;44.56
7178;BME280;3630;42.146;24.756;2023-02-20T00:44:06;99629.22;;;14.79;44.72
7178;BME280;3630;42.146;24.756;2023-02-20T00:46:33;99633.53;;;14.74;44.58
7178;BME280;3630;42.146;24.756;2023-02-20T00:49:00;99627.50;;;14.78;44.69
7178;BME280;3630;42.146;24.756;2023-02-20T00:51:27;99630.94;;;14.72;44.65
7178;BME280;3630;42.146;24.756;2023-02-20T00:53:53;99619.72;;;14.73;44.68
7178;BME280;3630;42.146;24.756;2023-02-20T00:56:20;99628.31;;;14.62;44.84
7178;BME280;3630;42.146;24.756;2023-02-20T00:58:47;99630.91;;;14.57;44.84
7178;BME280;3630;42.146;24.756;2023-02-20T01:01:15;99612.81;;;14.57;44.79
7178;BME280;3630;42.146;24.756;2023-02-20T01:03:42;99611.97;;;14.58;44.84
7178;BME280;3630;42.146;24.756;2023-02-20T01:06:09;99609.34;;;14.52;45.11
7178;BME280;3630;42.146;24.756;2023-02-20T01:08:36;99612.81;;;14.57;44.96
7178;BME280;3630;42.146;24.756;2023-02-20T01:11:03;99622.28;;;14.49;44.96
7178;BME280;3630;42.146;24.756;2023-02-20T01:13:31;99634.34;;;14.49;45.06
7178;BME280;3630;42.146;24.756;2023-02-20T01:15:58;99633.44;;;14.42;45.00
7178;BME280;3630;42.146;24.756;2023-02-20T01:18:26;99626.56;;;14.41;45.13
7178;BME280;3630;42.146;24.756;2023-02-20T01:20:53;99632.56;;;14.37;45.47
7178;BME280;3630;42.146;24.756;2023-02-20T01:23:20;99611.81;;;14.22;45.28
7178;BME280;3630;42.146;24.756;2023-02-20T01:25:47;99633.44;;;14.33;45.59
7178;BME280;3630;42.146;24.756;2023-02-20T01:28:14;99634.31;;;14.34;45.16
7178;BME280;3630;42.146;24.756;2023-02-20T01:30:40;99623.06;;;14.30;45.19
7178;BME280;3630;42.146;24.756;2023-02-20T01:33:07;99628.25;;;14.35;45.31
7178;BME280;3630;42.146;24.756;2023-02-20T01:35:35;99635.13;;;14.34;45.44
7178;BME280;3630;42.146;24.756;2023-02-20T01:38:02;99631.69;;;14.31;45.45
7178;BME280;3630;42.146;24.756;2023-02-20T01:40:31;99634.22;;;14.29;45.71
7178;BME280;3630;42.146;24.756;2023-02-20T01:42:58;99626.47;;;14.22;45.72
7178;BME280;3630;42.146;24.756;2023-02-20T01:45:32;99597.09;;;14.00;45.64
7178;BME280;3630;42.146;24.756;2023-02-20T01:48:00;99635.91;;;14.15;45.96
7178;BME280;3630;42.146;24.756;2023-02-20T01:50:30;99622.06;;;14.02;46.09
7178;BME280;3630;42.146;24.756;2023-02-20T01:53:02;99651.38;;;14.07;46.20
7178;BME280;3630;42.146;24.756;2023-02-20T01:55:32;99644.47;;;14.05;46.62
7178;BME280;3630;42.146;24.756;2023-02-20T01:58:04;99647.03;;;13.99;46.42
7178;BME280;3630;42.146;24.756;2023-02-20T02:00:32;99650.44;;;13.89;46.91
7178;BME280;3630;42.146;24.756;2023-02-20T02:03:03;99657.28;;;13.81;47.06
7178;BME280;3630;42.146;24.756;2023-02-20T02:05:32;99663.28;;;13.80;47.08
7178;BME280;3630;42.146;24.756;2023-02-20T02:08:02;99661.53;;;13.73;47.53
7178;BME280;3630;42.146;24.756;2023-02-20T02:10:32;99661.47;;;13.62;47.63
7178;BME280;3630;42.146;24.756;2023-02-20T02:13:02;99671.75;;;13.60;47.93
7178;BME280;3630;42.146;24.756;2023-02-20T02:15:29;99673.44;;;13.57;48.16
7178;BME280;3630;42.146;24.756;2023-02-20T02:18:08;99680.31;;;13.50;48.32
7178;BME280;3630;42.146;24.756;2023-02-20T02:21:13;99677.69;;;13.44;48.37
7178;BME280;3630;42.146;24.756;2023-02-20T02:30:39;99680.16;;;13.29;48.94
7178;BME280;3630;42.146;24.756;2023-02-20T02:33:32;99689.56;;;13.27;49.12
7178;BME280;3630;42.146;24.756;2023-02-20T02:36:21;99652.38;;;13.06;49.39
7178;BME280;3630;42.146;24.756;2023-02-20T02:38:56;99704.16;;;13.21;49.67
7178;BME280;3630;42.146;24.756;2023-02-20T02:41:34;99701.56;;;13.22;49.65
7178;BME280;3630;42.146;24.756;2023-02-20T02:44:12;99694.72;;;13.27;49.48
7178;BME280;3630;42.146;24.756;2023-02-20T02:46:45;99701.63;;;13.28;49.77
7178;BME280;3630;42.146;24.756;2023-02-20T02:49:22;99703.38;;;13.32;49.53
7178;BME280;3630;42.146;24.756;2023-02-20T02:51:53;99705.88;;;13.25;49.54
7178;BME280;3630;42.146;24.756;2023-02-20T02:54:25;99700.78;;;13.29;49.88
7178;BME280;3630;42.146;24.756;2023-02-20T02:57:17;99725.66;;;13.24;49.98
7178;BME280;3630;42.146;24.756;2023-02-20T02:59:45;99733.34;;;13.15;50.19
7178;BME280;3630;42.146;24.756;2023-02-20T03:02:14;99734.19;;;13.13;50.73
7178;BME280;3630;42.146;24.756;2023-02-20T03:04:46;99728.16;;;13.14;50.80
7178;BME280;3630;42.146;24.756;2023-02-20T03:07:16;99739.31;;;13.11;50.74
7178;BME280;3630;42.146;24.756;2023-02-20T03:09:48;99734.91;;;13.04;51.33
7178;BME280;3630;42.146;24.756;2023-02-20T03:12:17;99733.09;;;12.97;51.53
7178;BME280;3630;42.146;24.756;2023-02-20T03:14:48;99732.25;;;12.98;51.47
7178;BME280;3630;42.146;24.756;2023-02-20T03:17:37;99749.44;;;12.96;51.96
7178;BME280;3630;42.146;24.756;2023-02-20T03:20:07;99755.34;;;12.86;52.24
7178;BME280;3630;42.146;24.756;2023-02-20T03:22:40;99732.91;;;12.79;52.32
7178;BME280;3630;42.146;24.756;2023-02-20T03:25:12;99756.28;;;12.94;52.23
7178;BME280;3630;42.146;24.756;2023-02-20T03:27:43;99750.25;;;12.90;52.50
7178;BME280;3630;42.146;24.756;2023-02-20T03:30:15;99753.72;;;12.95;52.54
7178;BME280;3630;42.146;24.756;2023-02-20T03:32:45;99745.13;;;12.95;52.38
7178;BME280;3630;42.146;24.756;2023-02-20T03:35:31;99754.66;;;12.99;52.64
7178;BME280;3630;42.146;24.756;2023-02-20T03:38:20;99756.28;;;12.94;52.92
7178;BME280;3630;42.146;24.756;2023-02-20T03:41:07;99755.44;;;12.93;52.98
7178;BME280;3630;42.146;24.756;2023-02-20T03:43:53;99766.59;;;12.91;53.03
7178;BME280;3630;42.146;24.756;2023-02-20T03:46:22;99776.00;;;12.87;52.87
7178;BME280;3630;42.146;24.756;2023-02-20T03:48:52;99779.50;;;12.92;53.11
7178;BME280;3630;42.146;24.756;2023-02-20T03:51:22;99782.94;;;12.94;52.84
7178;BME280;3630;42.146;24.756;2023-02-20T03:53:51;99792.38;;;12.91;52.89
7178;BME280;3630;42.146;24.756;2023-02-20T03:56:22;99787.22;;;12.92;52.91
7178;BME280;3630;42.146;24.756;2023-02-20T03:58:54;99800.25;;;13.03;52.73
7178;BME280;3630;42.146;24.756;2023-02-20T04:01:24;99795.94;;;13.03;52.72
7178;BME280;3630;42.146;24.756;2023-02-20T04:03:55;99793.41;;;13.07;52.85
7178;BME280;3630;42.146;24.756;2023-02-20T04:06:27;99798.63;;;13.10;52.82
7178;BME280;3630;42.146;24.756;2023-02-20T04:09:01;99809.81;;;13.10;52.93
7178;BME280;3630;42.146;24.756;2023-02-20T04:11:33;99808.09;;;13.09;52.69
7178;BME280;3630;42.146;24.756;2023-02-20T04:14:02;99797.78;;;13.09;52.85
7178;BME280;3630;42.146;24.756;2023-02-20T04:16:31;99799.38;;;13.01;53.11
7178;BME280;3630;42.146;24.756;2023-02-20T04:19:00;99804.44;;;12.95;53.46
7178;BME280;3630;42.146;24.756;2023-02-20T04:21:32;99801.94;;;13.01;53.40
7178;BME280;3630;42.146;24.756;2023-02-20T04:24:06;99794.19;;;13.01;53.31
7178;BME280;3630;42.146;24.756;2023-02-20T04:26:35;99802.81;;;13.03;52.82
7178;BME280;3630;42.146;24.756;2023-02-20T04:29:02;99795.00;;;12.95;52.87
7178;BME280;3630;42.146;24.756;2023-02-20T04:31:30;99788.91;;;12.89;52.94
7178;BME280;3630;42.146;24.756;2023-02-20T04:33:57;99785.44;;;12.87;52.40
7178;BME280;3630;42.146;24.756;2023-02-20T04:36:24;99794.88;;;12.85;52.81
7178;BME280;3630;42.146;24.756;2023-02-20T04:38:51;99717.75;;;12.34;52.94
7178;BME280;3630;42.146;24.756;2023-02-20T04:41:20;99791.34;;;12.77;53.15
7178;BME280;3630;42.146;24.756;2023-02-20T04:43:46;99792.16;;;12.73;53.27
7178;BME280;3630;42.146;24.756;2023-02-20T04:46:13;99787.78;;;12.67;52.89
7178;BME280;3630;42.146;24.756;2023-02-20T04:48:40;99792.00;;;12.61;53.37
7178;BME280;3630;42.146;24.756;2023-02-20T04:51:07;99796.28;;;12.60;53.50
7178;BME280;3630;42.146;24.756;2023-02-20T04:53:35;99797.06;;;12.55;52.72
7178;BME280;3630;42.146;24.756;2023-02-20T04:56:01;99797.97;;;12.58;52.19
7178;BME280;3630;42.146;24.756;2023-02-20T04:58:30;99815.13;;;12.56;51.51
7178;BME280;3630;42.146;24.756;2023-02-20T05:00:58;99811.63;;;12.53;51.23
7178;BME280;3630;42.146;24.756;2023-02-20T05:03:25;99815.03;;;12.49;51.10
7178;BME280;3630;42.146;24.756;2023-02-20T05:05:52;99809.84;;;12.47;50.95
7178;BME280;3630;42.146;24.756;2023-02-20T05:08:18;99809.75;;;12.39;50.92
7178;BME280;3630;42.146;24.756;2023-02-20T05:10:45;99814.97;;;12.44;50.64
7178;BME280;3630;42.146;24.756;2023-02-20T05:13:12;99807.22;;;12.42;50.60
7178;BME280;3630;42.146;24.756;2023-02-20T05:15:40;99808.03;;;12.40;50.67
7178;BME280;3630;42.146;24.756;2023-02-20T05:18:07;99818.28;;;12.37;50.45
7178;BME280;3630;42.146;24.756;2023-02-20T05:20:34;99825.28;;;12.44;50.47
7178;BME280;3630;42.146;24.756;2023-02-20T05:23:18;99815.00;;;12.47;50.63
7178;BME280;3630;42.146;24.756;2023-02-20T05:25:45;99832.16;;;12.45;50.28
7178;BME280;3630;42.146;24.756;2023-02-20T05:28:12;99833.84;;;12.44;50.29
7178;BME280;3630;42.146;24.756;2023-02-20T05:30:40;99848.47;;;12.44;50.61
7178;BME280;3630;42.146;24.756;2023-02-20T05:33:07;99844.09;;;12.38;50.81
7178;BME280;3630;42.146;24.756;2023-02-20T05:35:33;99858.69;;;12.39;50.62
7178;BME280;3630;42.146;24.756;2023-02-20T05:38:04;99848.28;;;12.33;50.71
7178;BME280;3630;42.146;24.756;2023-02-20T05:40:30;99875.81;;;12.34;50.93
7178;BME280;3630;42.146;24.756;2023-02-20T05:42:57;99877.59;;;12.38;50.38
7178;BME280;3630;42.146;24.756;2023-02-20T05:45:24;99881.97;;;12.44;50.13
7178;BME280;3630;42.146;24.756;2023-02-20T05:47:52;99875.91;;;12.42;49.83
7178;BME280;3630;42.146;24.756;2023-02-20T05:50:19;99881.97;;;12.44;50.14
7178;BME280;3630;42.146;24.756;2023-02-20T05:52:46;99897.44;;;12.46;49.70
7178;BME280;3630;42.146;24.756;2023-02-20T05:55:12;99896.72;;;12.56;49.44
7178;BME280;3630;42.146;24.756;2023-02-20T05:57:39;99910.50;;;12.55;49.54
7178;BME280;3630;42.146;24.756;2023-02-20T06:00:07;99919.09;;;12.57;49.33
7178;BME280;3630;42.146;24.756;2023-02-20T06:02:34;99919.16;;;12.61;49.25
7178;BME280;3630;42.146;24.756;2023-02-20T06:05:03;99917.56;;;12.68;48.97
7178;BME280;3630;42.146;24.756;2023-02-20T06:07:32;99915.94;;;12.76;49.13
7178;BME280;3630;42.146;24.756;2023-02-20T06:09:58;99922.72;;;12.68;49.07
7178;BME280;3630;42.146;24.756;2023-02-20T06:12:25;99930.44;;;12.68;48.96
7178;BME280;3630;42.146;24.756;2023-02-20T06:14:52;99943.34;;;12.69;48.78
7178;BME280;3630;42.146;24.756;2023-02-20T06:17:19;99939.81;;;12.64;48.71
7178;BME280;3630;42.146;24.756;2023-02-20T06:19:45;99945.91;;;12.68;48.96
7178;BME280;3630;42.146;24.756;2023-02-20T06:22:15;99943.44;;;12.74;48.73
7178;BME280;3630;42.146;24.756;2023-02-20T06:24:43;99951.16;;;12.75;48.42
7178;BME280;3630;42.146;24.756;2023-02-20T06:27:10;99957.34;;;12.86;47.87
7178;BME280;3630;42.146;24.756;2023-02-20T06:29:37;99971.94;;;12.84;47.71
7178;BME280;3630;42.146;24.756;2023-02-20T06:32:04;99971.13;;;12.87;47.81
7178;BME280;3630;42.146;24.756;2023-02-20T06:34:31;99971.06;;;12.84;47.91
7178;BME280;3630;42.146;24.756;2023-02-20T06:36:59;99961.59;;;12.81;47.29
7178;BME280;3630;42.146;24.756;2023-02-20T06:39:30;99975.56;;;12.97;47.21
7178;BME280;3630;42.146;24.756;2023-02-20T06:41:57;99960.25;;;13.08;46.05
7178;BME280;3630;42.146;24.756;2023-02-20T06:44:24;99964.63;;;13.10;46.03
7178;BME280;3630;42.146;24.756;2023-02-20T06:46:50;99963.84;;;13.16;45.83
7178;BME280;3630;42.146;24.756;2023-02-20T06:49:17;99963.00;;;13.21;45.13
7178;BME280;3630;42.146;24.756;2023-02-20T06:51:44;99945.94;;;13.29;45.34
7178;BME280;3630;42.146;24.756;2023-02-20T06:54:11;99944.25;;;13.33;45.18
7178;BME280;3630;42.146;24.756;2023-02-20T06:56:40;99953.78;;;13.38;45.17
7178;BME280;3630;42.146;24.756;2023-02-20T06:59:07;99951.25;;;13.41;45.18
7178;BME280;3630;42.146;24.756;2023-02-20T07:01:38;99935.66;;;13.35;45.41
7178;BME280;3630;42.146;24.756;2023-02-20T07:04:05;99941.81;;;13.45;45.18
7178;BME280;3630;42.146;24.756;2023-02-20T07:06:32;99942.75;;;13.50;44.72
7178;BME280;3630;42.146;24.756;2023-02-20T07:08:59;99932.50;;;13.56;44.93
7178;BME280;3630;42.146;24.756;2023-02-20T07:11:26;99945.44;;;13.60;44.46
7178;BME280;3630;42.146;24.756;2023-02-20T07:13:54;99936.84;;;13.62;44.64
7178;BME280;3630;42.146;24.756;2023-02-20T07:16:22;99929.22;;;13.72;43.74
7178;BME280;3630;42.146;24.756;2023-02-20T07:18:49;99949.09;;;13.78;43.52
7178;BME280;3630;42.146;24.756;2023-02-20T07:21:16;99934.53;;;13.84;43.32
7178;BME280;3630;42.146;24.756;2023-02-20T07:23:43;99940.63;;;13.92;42.68
7178;BME280;3630;42.146;24.756;2023-02-20T07:26:17;99926.88;;;13.95;41.87
7178;BME280;3630;42.146;24.756;2023-02-20T07:28:44;99935.53;;;14.00;42.02
7178;BME280;3630;42.146;24.756;2023-02-20T07:31:12;99938.19;;;14.06;41.77
7178;BME280;3630;42.146;24.756;2023-02-20T07:33:39;99944.22;;;14.09;41.38
7178;BME280;3630;42.146;24.756;2023-02-20T07:36:08;99953.75;;;14.13;41.29
7178;BME280;3630;42.146;24.756;2023-02-20T07:38:35;99946.81;;;14.09;41.30
7178;BME280;3630;42.146;24.756;2023-02-20T07:41:01;99946.88;;;14.14;40.81
7178;BME280;3630;42.146;24.756;2023-02-20T07:43:28;99962.38;;;14.14;40.41
7178;BME280;3630;42.146;24.756;2023-02-20T07:45:55;99951.25;;;14.24;40.40
7178;BME280;3630;42.146;24.756;2023-02-20T07:48:23;99962.63;;;14.38;39.50
7178;BME280;3630;42.146;24.756;2023-02-20T07:50:52;99955.72;;;14.40;39.28
7178;BME280;3630;42.146;24.756;2023-02-20T07:53:20;99946.22;;;14.38;39.06
7178;BME280;3630;42.146;24.756;2023-02-20T07:55:47;99957.44;;;14.40;38.84
7178;BME280;3630;42.146;24.756;2023-02-20T07:58:13;99951.56;;;14.57;38.62
7178;BME280;3630;42.146;24.756;2023-02-20T08:00:40;99979.22;;;14.66;38.14
7178;BME280;3630;42.146;24.756;2023-02-20T08:03:07;99952.38;;;14.53;37.62
7178;BME280;3630;42.146;24.756;2023-02-20T08:05:35;99944.66;;;14.55;37.53
7178;BME280;3630;42.146;24.756;2023-02-20T08:08:02;99942.06;;;14.56;37.40
7178;BME280;3630;42.146;24.756;2023-02-20T08:10:29;99963.63;;;14.55;37.11
7178;BME280;3630;42.146;24.756;2023-02-20T08:12:56;99949.84;;;14.58;37.57
7178;BME280;3630;42.146;24.756;2023-02-20T08:15:23;99941.28;;;14.66;37.12
7178;BME280;3630;42.146;24.756;2023-02-20T08:17:50;99934.38;;;14.65;36.54
7178;BME280;3630;42.146;24.756;2023-02-20T08:20:18;99939.56;;;14.68;36.23
7178;BME280;3630;42.146;24.756;2023-02-20T08:22:48;99937.03;;;14.74;36.39
7178;BME280;3630;42.146;24.756;2023-02-20T08:25:16;99932.81;;;14.89;35.67
7178;BME280;3630;42.146;24.756;2023-02-20T08:27:45;99922.47;;;14.95;35.01
7178;BME280;3630;42.146;24.756;2023-02-20T08:30:14;99939.78;;;15.02;35.03
7178;BME280;3630;42.146;24.756;2023-02-20T08:32:41;99932.06;;;15.09;34.45
7178;BME280;3630;42.146;24.756;2023-02-20T08:35:08;99934.59;;;15.03;34.09
7178;BME280;3630;42.146;24.756;2023-02-20T08:37:35;99943.22;;;14.99;33.95
7178;BME280;3630;42.146;24.756;2023-02-20T08:40:04;99945.72;;;14.87;34.07
7178;BME280;3630;42.146;24.756;2023-02-20T08:42:33;99925.06;;;14.95;33.60
7178;BME280;3630;42.146;24.756;2023-02-20T08:45:00;99913.94;;;15.08;33.35
7178;BME280;3630;42.146;24.756;2023-02-20T08:47:27;99923.47;;;15.19;33.42
7178;BME280;3630;42.146;24.756;2023-02-20T08:49:54;99902.75;;;15.18;33.58
7178;BME280;3630;42.146;24.756;2023-02-20T08:52:20;99903.66;;;15.26;33.34
7178;BME280;3630;42.146;24.756;2023-02-20T08:54:48;99889.81;;;15.18;32.73
7178;BME280;3630;42.146;24.756;2023-02-20T08:57:17;99941.63;;;15.27;32.39
7178;BME280;3630;42.146;24.756;2023-02-20T08:59:44;99919.19;;;15.30;31.77
7178;BME280;3630;42.146;24.756;2023-02-20T09:02:15;99934.75;;;15.36;31.74
7178;BME280;3630;42.146;24.756;2023-02-20T09:04:43;99908.00;;;15.34;31.41
7178;BME280;3630;42.146;24.756;2023-02-20T09:07:10;99939.09;;;15.41;31.08
7178;BME280;3630;42.146;24.756;2023-02-20T09:09:38;99954.72;;;15.51;30.22
7178;BME280;3630;42.146;24.756;2023-02-20T09:12:06;99943.50;;;15.66;29.40
7178;BME280;3630;42.146;24.756;2023-02-20T09:14:34;99954.75;;;15.66;29.04
7178;BME280;3630;42.146;24.756;2023-02-20T09:17:01;99942.72;;;15.76;29.36
7178;BME280;3630;42.146;24.756;2023-02-20T09:19:29;99953.94;;;15.78;28.32
7178;BME280;3630;42.146;24.756;2023-02-20T09:21:56;99972.03;;;15.67;27.54
7178;BME280;3630;42.146;24.756;2023-02-20T09:24:23;99964.28;;;15.70;27.19
7178;BME280;3630;42.146;24.756;2023-02-20T09:26:50;99980.69;;;15.75;27.62
7178;BME280;3630;42.146;24.756;2023-02-20T09:29:16;99972.94;;;15.78;26.92
7178;BME280;3630;42.146;24.756;2023-02-20T09:31:45;99978.97;;;15.80;26.56
7178;BME280;3630;42.146;24.756;2023-02-20T09:34:11;99934.03;;;15.69;27.29
7178;BME280;3630;42.146;24.756;2023-02-20T09:36:38;99974.69;;;15.96;26.60
7178;BME280;3630;42.146;24.756;2023-02-20T09:39:05;99955.72;;;16.03;27.55
7178;BME280;3630;42.146;24.756;2023-02-20T09:41:41;99942.78;;;16.17;27.38
7178;BME280;3630;42.146;24.756;2023-02-20T09:44:14;99950.53;;;16.11;25.69
7178;BME280;3630;42.146;24.756;2023-02-20T09:46:46;99949.66;;;16.06;24.59
7178;BME280;3630;42.146;24.756;2023-02-20T09:49:17;99933.25;;;16.08;24.89
7178;BME280;3630;42.146;24.756;2023-02-20T09:51:50;99955.72;;;16.08;23.94
7178;BME280;3630;42.146;24.756;2023-02-20T09:54:22;99939.31;;;16.12;24.15
7178;BME280;3630;42.146;24.756;2023-02-20T09:56:52;99951.41;;;16.22;24.10
7178;BME280;3630;42.146;24.756;2023-02-20T09:59:23;99971.31;;;16.33;24.05
7178;BME280;3630;42.146;24.756;2023-02-20T10:01:55;99938.47;;;16.31;23.22
7178;BME280;3630;42.146;24.756;2023-02-20T10:04:27;99922.00;;;16.11;22.49
7178;BME280;3630;42.146;24.756;2023-02-20T10:07:03;99937.56;;;16.32;21.95
7178;BME280;3630;42.146;24.756;2023-02-20T10:09:32;99942.78;;;16.17;21.84
7178;BME280;3630;42.146;24.756;2023-02-20T10:12:16;99941.06;;;16.28;21.91
7178;BME280;3630;42.146;24.756;2023-02-20T10:15:13;99929.81;;;16.30;22.13
7178;BME280;3630;42.146;24.756;2023-02-20T10:17:53;99965.25;;;16.27;21.63
7178;BME280;3630;42.146;24.756;2023-02-20T10:20:26;99928.97;;;16.18;21.65
7178;BME280;3630;42.146;24.756;2023-02-20T10:23:01;99937.59;;;16.26;21.35
7178;BME280;3630;42.146;24.756;2023-02-20T10:25:36;99917.69;;;16.35;21.58
7178;BME280;3630;42.146;24.756;2023-02-20T10:28:07;99917.69;;;16.49;20.89
7178;BME280;3630;42.146;24.756;2023-02-20T10:30:37;99940.19;;;16.50;21.35
7178;BME280;3630;42.146;24.756;2023-02-20T10:33:17;99948.81;;;16.43;21.39
7178;BME280;3630;42.146;24.756;2023-02-20T10:35:50;99920.31;;;16.37;21.55
7178;BME280;3630;42.146;24.756;2023-02-20T10:38:22;99939.31;;;16.45;21.45
7178;BME280;3630;42.146;24.756;2023-02-20T10:40:53;99916.88;;;16.53;21.53
7178;BME280;3630;42.146;24.756;2023-02-20T10:43:29;99918.59;;;16.57;21.36
7178;BME280;3630;42.146;24.756;2023-02-20T10:46:04;99914.25;;;16.50;20.97
7178;BME280;3630;42.146;24.756;2023-02-20T10:48:34;99916.88;;;16.56;21.19
7178;BME280;3630;42.146;24.756;2023-02-20T10:51:06;99908.19;;;16.63;20.99
7178;BME280;3630;42.146;24.756;2023-02-20T10:53:38;99926.34;;;16.68;21.20
7178;BME280;3630;42.146;24.756;2023-02-20T10:56:10;99935.03;;;16.67;21.23
7178;BME280;3630;42.146;24.756;2023-02-20T10:58:41;99927.22;;;16.64;21.16
7178;BME280;3630;42.146;24.756;2023-02-20T11:01:14;99925.50;;;16.75;20.54
7178;BME280;3630;42.146;24.756;2023-02-20T11:03:47;99910.78;;;16.68;21.32
7178;BME280;3630;42.146;24.756;2023-02-20T11:06:20;99918.56;;;16.74;21.36
7178;BME280;3630;42.146;24.756;2023-02-20T11:08:47;99917.69;;;16.82;21.08
7178;BME280;3630;42.146;24.756;2023-02-20T11:11:24;99909.88;;;16.85;21.07
7178;BME280;3630;42.146;24.756;2023-02-20T11:13:53;99910.72;;;16.95;21.25
7178;BME280;3630;42.146;24.756;2023-02-20T11:16:23;99911.56;;;17.01;21.29
7178;BME280;3630;42.146;24.756;2023-02-20T11:19:05;99912.44;;;17.05;20.77
7178;BME280;3630;42.146;24.756;2023-02-20T11:21:36;99909.84;;;17.00;20.78
7178;BME280;3630;42.146;24.756;2023-02-20T11:24:28;99906.38;;;16.95;20.57
7178;BME280;3630;42.146;24.756;2023-02-20T11:26:59;99902.91;;;17.05;20.46
7178;BME280;3630;42.146;24.756;2023-02-20T11:29:33;99863.16;;;16.90;20.10
7178;BME280;3630;42.146;24.756;2023-02-20T11:32:17;99906.34;;;17.15;20.32
7178;BME280;3630;42.146;24.756;2023-02-20T11:35:02;99895.06;;;17.18;20.22
7178;BME280;3630;42.146;24.756;2023-02-20T11:37:29;99896.81;;;17.13;20.10
7178;BME280;3630;42.146;24.756;2023-02-20T11:39:58;99870.06;;;16.97;20.05
7178;BME280;3630;42.146;24.756;2023-02-20T11:42:31;99907.22;;;17.06;20.20
7178;BME280;3630;42.146;24.756;2023-02-20T11:45:12;99946.16;;;17.13;20.38
7178;BME280;3630;42.146;24.756;2023-02-20T11:47:39;99914.16;;;17.07;20.26
7178;BME280;3630;42.146;24.756;2023-02-20T11:50:25;99923.63;;;17.24;20.52
7178;BME280;3630;42.146;24.756;2023-02-20T11:53:04;99919.31;;;17.12;20.68
7178;BME280;3630;42.146;24.756;2023-02-20T11:55:33;99927.97;;;17.16;20.93
7178;BME280;3630;42.146;24.756;2023-02-20T11:58:01;99911.53;;;17.17;20.81
7178;BME280;3630;42.146;24.756;2023-02-20T12:00:43;99913.22;;;17.24;21.12
7178;BME280;3630;42.146;24.756;2023-02-20T12:03:12;99914.03;;;17.36;21.26
7178;BME280;3630;42.146;24.756;2023-02-20T12:05:42;99915.75;;;17.40;20.63
7178;BME280;3630;42.146;24.756;2023-02-20T12:08:28;99923.53;;;17.42;20.49
7178;BME280;3630;42.146;24.756;2023-02-20T12:10:59;99927.88;;;17.34;20.10
7178;BME280;3630;42.146;24.756;2023-02-20T12:13:27;99912.31;;;17.35;20.58
7178;BME280;3630;42.146;24.756;2023-02-20T12:16:17;99908.88;;;17.30;20.76
7178;BME280;3630;42.146;24.756;2023-02-20T12:18:51;99919.19;;;17.47;20.65
7178;BME280;3630;42.146;24.756;2023-02-20T12:21:27;99910.56;;;17.40;20.75
7178;BME280;3630;42.146;24.756;2023-02-20T12:24:12;99904.53;;;17.29;21.01
7178;BME280;3630;42.146;24.756;2023-02-20T12:26:50;99922.63;;;17.47;20.71
7178;BME280;3630;42.146;24.756;2023-02-20T12:29:26;99907.91;;;17.57;20.73
7178;BME280;3630;42.146;24.756;2023-02-20T12:32:04;99907.91;;;17.52;20.99
7178;BME280;3630;42.146;24.756;2023-02-20T12:35:00;99894.03;;;17.58;21.01
7178;BME280;3630;42.146;24.756;2023-02-20T12:37:40;99893.13;;;17.66;20.98
7178;BME280;3630;42.146;24.756;2023-02-20T12:40:32;99888.78;;;17.72;20.82
7178;BME280;3630;42.146;24.756;2023-02-20T12:43:09;99907.81;;;17.69;20.50
7178;BME280;3630;42.146;24.756;2023-02-20T12:45:41;99919.97;;;17.64;20.47
7178;BME280;3630;42.146;24.756;2023-02-20T12:48:25;99893.16;;;17.53;20.78
7178;BME280;3630;42.146;24.756;2023-02-20T12:51:08;99887.97;;;17.59;20.91
7178;BME280;3630;42.146;24.756;2023-02-20T12:53:52;99885.31;;;17.68;21.13
7178;BME280;3630;42.146;24.756;2023-02-20T12:56:28;99887.00;;;17.72;20.93
7178;BME280;3630;42.146;24.756;2023-02-20T12:59:04;99874.03;;;17.71;20.91
7178;BME280;3630;42.146;24.756;2023-02-20T13:01:34;99870.59;;;17.68;20.98
7178;BME280;3630;42.146;24.756;2023-02-20T13:04:06;99888.78;;;17.70;21.11
7178;BME280;3630;42.146;24.756;2023-02-20T13:06:42;99884.41;;;17.75;21.09
7178;BME280;3630;42.146;24.756;2023-02-20T13:09:17;99882.72;;;17.71;20.83
7178;BME280;3630;42.146;24.756;2023-02-20T13:11:50;99874.13;;;17.57;21.01
7178;BME280;3630;42.146;24.756;2023-02-20T13:14:28;99873.25;;;17.56;21.15
7178;BME280;3630;42.146;24.756;2023-02-20T13:17:06;99885.34;;;17.62;21.32
7178;BME280;3630;42.146;24.756;2023-02-20T13:19:39;99882.69;;;17.69;20.97
7178;BME280;3630;42.146;24.756;2023-02-20T13:22:08;99882.69;;;17.74;20.72
7178;BME280;3630;42.146;24.756;2023-02-20T13:24:37;99892.19;;;17.78;20.64
7178;BME280;3630;42.146;24.756;2023-02-20T13:27:05;99891.41;;;17.68;21.15
7178;BME280;3630;42.146;24.756;2023-02-20T13:29:34;99900.00;;;17.80;21.24
7178;BME280;3630;42.146;24.756;2023-02-20T13:32:18;99889.63;;;17.74;21.01
7178;BME280;3630;42.146;24.756;2023-02-20T13:34:47;99896.59;;;17.67;20.66
7178;BME280;3630;42.146;24.756;2023-02-20T13:41:03;99902.69;;;17.66;20.70